Airfield :
LOGIN :

Register | Disclaimer

   EN    FR    IT 

 










Legend :    VFR   Marginal VFR   IFR   Intensive IFR   Very Intensive IFR
Visi :
Ceiling :
>= 8 km
>= 3000ft
5 to 8 km
1000 to 3000 ft
1500m to 5 km
500 to 1000 ft
800 to 1500m
200 to 500 ft
< 800m
< 200 ft
Symbols :   Thunderstorms  Fog  Heavy snow  Heavy precipitations  Wind > 20 kt
SIGMETs :     Misc.  Thunderstorms  Icing  Turbulence  Mountain Waves  Volcanic Ashes






- Airport Elevation : 39 ft
- IATA code : ANR


EBAW - Anvers / Antwerpen Deurne

CURRENT METAR :
  • 152050Z 13003KT CAVOK 03/00 Q1003 NOSIG

EXPIRED METARs :
  • 152020Z 13005KT 110V170 9999 SCT027 04/01 Q1003 NOSIG
  • 151950Z 17012KT 9999 BKN027 06/01 Q1003 NOSIG
  • 151920Z 17007KT 140V200 9999 BKN027 06/02 Q1002 NOSIG
  • 151850Z 14005KT 9999 BKN029 06/02 Q1002 NOSIG
  • 151820Z 15005KT 9999 BKN029 06/02 Q1002 NOSIG

TAF TAF EBAW
Valid from the 15 at 21:00 until the 16 at 06:00 UTC


152003Z 1521/1606 10005KT 9999 SCT020



MET'MAP, your aeronautical weather chart ! - Copyright ORBIFLY December 2007 - Disclaimer

ORBIFLY MET'MAP TEAM :

Programming & Development : Alexandra Zaïnal
Concept & Development : Baudouin d'Aumeries
Co-Development & Prog : Marc-Olivier Méhu
Technical & hardware support : Manuel Goepfert

Contact : metmap@orbifly.com




SOURCES & CREDITS :

   NOAA